Авиационная погода в Сургуте

СКИДКИ НА СМАРТФОНЫ!

Регион: 
Погода METAR: 
USRR 250300Z 34002MPS 310V020 9999 SCT020CB BKN048 03/02 Q1019 R25/CLRD60 NOSIG RMK QFE759
Время наблюдения
2022-09-25T03:00:00Z
Температура C
3.0
Точка росы
2.0
Направление ветра
340
Скорость ветра (узлы)
4
Метео видимость
6.21
Облачность
SCT
BKN
Нижняя граница облачности (футы)
2000
4800
Явления погоды
Условия полета
VFR
Аэропорт подробнее: 
SCT – разбросанная отдельная облачность; BKN – значительная (рассеянная, разорванная) облачность;

Скидки на навигаторы!